EmailTwitter


Observations de surface / Québec / LFMK

Régions: Québec | Canada | États-Unis | Europe | France | UK | Elsewhere
Station
Affichage
Infos & localisation pour LFMK | Aide pour décoder les METARs

Observations prises le 2017-05-24 à 05H30 UTC à CARCASSONNE/SALV, FR (LFMK)

Température: 16.0 Celsius

Point de rosée: 14.0 Celsius

Humidité relative: 88%

Vents: Sud-ouest à 11 km/h ou 6 noeuds.

Pression au niveau moyen de la mer: 102.20 kilopascals.

Observation METAR:

LFMK 240530Z AUTO 24006KT 200V260 CAVOK 16/14 Q1022 TEMPO 3000 BR BKN005 =